sensor_id;sensor_type;location;lat;lon;timestamp;P1;durP1;ratioP1;P2;durP2;ratioP2
51664;SDS011;37751;52.408;12.536;2022-11-20T00:01:22;35.23;;;22.27;;
51664;SDS011;37751;52.408;12.536;2022-11-20T00:03:51;57.63;;;29.93;;
51664;SDS011;37751;52.408;12.536;2022-11-20T00:06:20;84.30;;;37.67;;
51664;SDS011;37751;52.408;12.536;2022-11-20T00:08:47;48.47;;;23.47;;
51664;SDS011;37751;52.408;12.536;2022-11-20T00:11:16;78.27;;;36.07;;
51664;SDS011;37751;52.408;12.536;2022-11-20T00:13:49;73.83;;;35.63;;
51664;SDS011;37751;52.408;12.536;2022-11-20T00:16:19;68.20;;;33.53;;
51664;SDS011;37751;52.408;12.536;2022-11-20T00:18:49;80.30;;;39.60;;
51664;SDS011;37751;52.408;12.536;2022-11-20T00:21:20;89.73;;;42.63;;
51664;SDS011;37751;52.408;12.536;2022-11-20T00:23:50;52.63;;;27.27;;
51664;SDS011;37751;52.408;12.536;2022-11-20T00:26:21;52.80;;;25.30;;
51664;SDS011;37751;52.408;12.536;2022-11-20T00:28:52;50.33;;;26.00;;
51664;SDS011;37751;52.408;12.536;2022-11-20T00:31:20;50.07;;;26.53;;
51664;SDS011;37751;52.408;12.536;2022-11-20T00:33:48;36.17;;;20.83;;
51664;SDS011;37751;52.408;12.536;2022-11-20T00:36:16;33.63;;;18.20;;
51664;SDS011;37751;52.408;12.536;2022-11-20T00:38:51;32.53;;;17.40;;
51664;SDS011;37751;52.408;12.536;2022-11-20T00:41:20;33.00;;;18.53;;
51664;SDS011;37751;52.408;12.536;2022-11-20T00:43:47;35.70;;;18.73;;
51664;SDS011;37751;52.408;12.536;2022-11-20T00:46:15;29.17;;;16.33;;
51664;SDS011;37751;52.408;12.536;2022-11-20T00:48:44;31.63;;;16.33;;
51664;SDS011;37751;52.408;12.536;2022-11-20T00:51:34;31.17;;;16.80;;
51664;SDS011;37751;52.408;12.536;2022-11-20T00:54:00;31.27;;;16.73;;
51664;SDS011;37751;52.408;12.536;2022-11-20T00:56:28;33.87;;;17.60;;
51664;SDS011;37751;52.408;12.536;2022-11-20T00:58:55;30.27;;;16.50;;
51664;SDS011;37751;52.408;12.536;2022-11-20T01:01:25;26.60;;;15.40;;
51664;SDS011;37751;52.408;12.536;2022-11-20T01:03:53;28.27;;;16.03;;
51664;SDS011;37751;52.408;12.536;2022-11-20T01:06:24;31.37;;;17.27;;
51664;SDS011;37751;52.408;12.536;2022-11-20T01:09:01;37.00;;;17.07;;
51664;SDS011;37751;52.408;12.536;2022-11-20T01:11:34;30.03;;;15.33;;
51664;SDS011;37751;52.408;12.536;2022-11-20T01:14:06;28.47;;;16.37;;
51664;SDS011;37751;52.408;12.536;2022-11-20T01:16:38;27.43;;;15.37;;
51664;SDS011;37751;52.408;12.536;2022-11-20T01:19:15;31.07;;;16.20;;
51664;SDS011;37751;52.408;12.536;2022-11-20T01:21:47;34.10;;;16.63;;
51664;SDS011;37751;52.408;12.536;2022-11-20T01:24:21;28.47;;;15.40;;
51664;SDS011;37751;52.408;12.536;2022-11-20T01:26:49;31.30;;;17.10;;
51664;SDS011;37751;52.408;12.536;2022-11-20T01:29:21;24.77;;;14.70;;
51664;SDS011;37751;52.408;12.536;2022-11-20T01:31:50;29.27;;;15.67;;
51664;SDS011;37751;52.408;12.536;2022-11-20T01:34:19;27.40;;;15.33;;
51664;SDS011;37751;52.408;12.536;2022-11-20T01:36:48;28.80;;;14.80;;
51664;SDS011;37751;52.408;12.536;2022-11-20T01:39:18;29.10;;;16.10;;
51664;SDS011;37751;52.408;12.536;2022-11-20T01:41:52;28.93;;;15.83;;
51664;SDS011;37751;52.408;12.536;2022-11-20T01:53:08;29.13;;;15.57;;
51664;SDS011;37751;52.408;12.536;2022-11-20T01:55:41;28.60;;;15.77;;
51664;SDS011;37751;52.408;12.536;2022-11-20T01:58:22;25.97;;;14.63;;
51664;SDS011;37751;52.408;12.536;2022-11-20T02:00:54;31.13;;;15.30;;
51664;SDS011;37751;52.408;12.536;2022-11-20T02:03:22;32.93;;;15.77;;
51664;SDS011;37751;52.408;12.536;2022-11-20T02:08:51;34.73;;;14.93;;
51664;SDS011;37751;52.408;12.536;2022-11-20T02:11:18;30.13;;;15.27;;
51664;SDS011;37751;52.408;12.536;2022-11-20T02:13:45;31.73;;;16.43;;
51664;SDS011;37751;52.408;12.536;2022-11-20T02:16:18;32.60;;;16.87;;
51664;SDS011;37751;52.408;12.536;2022-11-20T02:18:50;39.53;;;16.20;;
51664;SDS011;37751;52.408;12.536;2022-11-20T02:24:14;32.83;;;17.00;;
51664;SDS011;37751;52.408;12.536;2022-11-20T02:29:26;28.03;;;14.57;;
51664;SDS011;37751;52.408;12.536;2022-11-20T02:31:57;26.47;;;14.30;;
51664;SDS011;37751;52.408;12.536;2022-11-20T02:34:28;27.73;;;15.27;;
51664;SDS011;37751;52.408;12.536;2022-11-20T02:36:55;30.07;;;15.17;;
51664;SDS011;37751;52.408;12.536;2022-11-20T02:39:24;27.03;;;15.33;;
51664;SDS011;37751;52.408;12.536;2022-11-20T02:41:53;30.07;;;15.13;;
51664;SDS011;37751;52.408;12.536;2022-11-20T02:44:22;32.13;;;15.47;;
51664;SDS011;37751;52.408;12.536;2022-11-20T02:46:49;27.27;;;15.87;;
51664;SDS011;37751;52.408;12.536;2022-11-20T02:49:16;28.47;;;15.70;;
51664;SDS011;37751;52.408;12.536;2022-11-20T02:51:43;28.30;;;16.07;;
51664;SDS011;37751;52.408;12.536;2022-11-20T02:54:10;27.83;;;15.67;;
51664;SDS011;37751;52.408;12.536;2022-11-20T02:56:37;26.23;;;15.03;;
51664;SDS011;37751;52.408;12.536;2022-11-20T02:59:05;35.40;;;16.30;;
51664;SDS011;37751;52.408;12.536;2022-11-20T03:01:32;29.27;;;16.57;;
51664;SDS011;37751;52.408;12.536;2022-11-20T03:04:02;28.70;;;15.03;;
51664;SDS011;37751;52.408;12.536;2022-11-20T03:06:29;29.40;;;16.23;;
51664;SDS011;37751;52.408;12.536;2022-11-20T03:08:56;28.73;;;16.10;;
51664;SDS011;37751;52.408;12.536;2022-11-20T03:11:23;31.40;;;16.33;;
51664;SDS011;37751;52.408;12.536;2022-11-20T03:13:50;33.57;;;17.27;;
51664;SDS011;37751;52.408;12.536;2022-11-20T03:16:17;28.97;;;16.37;;
51664;SDS011;37751;52.408;12.536;2022-11-20T03:18:46;27.70;;;16.13;;
51664;SDS011;37751;52.408;12.536;2022-11-20T03:21:14;27.90;;;16.00;;
51664;SDS011;37751;52.408;12.536;2022-11-20T03:23:42;26.77;;;15.27;;
51664;SDS011;37751;52.408;12.536;2022-11-20T03:28:52;27.93;;;16.43;;
51664;SDS011;37751;52.408;12.536;2022-11-20T03:31:43;29.63;;;17.63;;
51664;SDS011;37751;52.408;12.536;2022-11-20T03:34:10;34.23;;;18.03;;
51664;SDS011;37751;52.408;12.536;2022-11-20T03:36:38;28.37;;;16.47;;
51664;SDS011;37751;52.408;12.536;2022-11-20T03:39:07;29.90;;;16.53;;
51664;SDS011;37751;52.408;12.536;2022-11-20T03:41:38;28.83;;;16.50;;
51664;SDS011;37751;52.408;12.536;2022-11-20T03:44:08;30.53;;;16.77;;
51664;SDS011;37751;52.408;12.536;2022-11-20T03:46:37;29.80;;;16.27;;
51664;SDS011;37751;52.408;12.536;2022-11-20T03:49:04;32.03;;;17.77;;
51664;SDS011;37751;52.408;12.536;2022-11-20T03:51:32;30.10;;;16.73;;
51664;SDS011;37751;52.408;12.536;2022-11-20T03:54:03;32.73;;;17.03;;
51664;SDS011;37751;52.408;12.536;2022-11-20T03:56:34;32.40;;;17.80;;
51664;SDS011;37751;52.408;12.536;2022-11-20T03:59:06;28.30;;;16.37;;
51664;SDS011;37751;52.408;12.536;2022-11-20T04:01:36;33.30;;;17.43;;
51664;SDS011;37751;52.408;12.536;2022-11-20T04:04:04;35.23;;;17.23;;
51664;SDS011;37751;52.408;12.536;2022-11-20T04:06:35;28.03;;;16.77;;
51664;SDS011;37751;52.408;12.536;2022-11-20T04:09:04;29.10;;;17.33;;
51664;SDS011;37751;52.408;12.536;2022-11-20T04:11:33;30.27;;;18.30;;
51664;SDS011;37751;52.408;12.536;2022-11-20T04:14:04;32.13;;;17.73;;
51664;SDS011;37751;52.408;12.536;2022-11-20T04:16:33;30.40;;;16.77;;
51664;SDS011;37751;52.408;12.536;2022-11-20T04:19:03;32.67;;;16.53;;
51664;SDS011;37751;52.408;12.536;2022-11-20T04:21:35;31.77;;;17.57;;
51664;SDS011;37751;52.408;12.536;2022-11-20T04:24:02;32.63;;;17.53;;
51664;SDS011;37751;52.408;12.536;2022-11-20T04:26:33;35.13;;;19.07;;
51664;SDS011;37751;52.408;12.536;2022-11-20T04:29:00;33.27;;;18.80;;
51664;SDS011;37751;52.408;12.536;2022-11-20T04:31:31;34.40;;;17.90;;
51664;SDS011;37751;52.408;12.536;2022-11-20T04:34:01;35.90;;;17.93;;
51664;SDS011;37751;52.408;12.536;2022-11-20T04:36:35;34.73;;;17.67;;
51664;SDS011;37751;52.408;12.536;2022-11-20T04:39:03;38.53;;;19.20;;
51664;SDS011;37751;52.408;12.536;2022-11-20T04:41:34;32.67;;;18.70;;
51664;SDS011;37751;52.408;12.536;2022-11-20T04:44:03;33.37;;;17.90;;
51664;SDS011;37751;52.408;12.536;2022-11-20T04:46:36;31.67;;;17.00;;
51664;SDS011;37751;52.408;12.536;2022-11-20T04:49:10;34.43;;;18.37;;
51664;SDS011;37751;52.408;12.536;2022-11-20T04:51:38;35.20;;;18.97;;
51664;SDS011;37751;52.408;12.536;2022-11-20T04:54:05;35.73;;;19.13;;
51664;SDS011;37751;52.408;12.536;2022-11-20T04:56:32;37.07;;;18.90;;
51664;SDS011;37751;52.408;12.536;2022-11-20T04:58:59;40.50;;;20.57;;
51664;SDS011;37751;52.408;12.536;2022-11-20T05:01:35;39.07;;;19.67;;
51664;SDS011;37751;52.408;12.536;2022-11-20T05:04:02;39.53;;;21.27;;
51664;SDS011;37751;52.408;12.536;2022-11-20T05:06:28;38.30;;;20.17;;
51664;SDS011;37751;52.408;12.536;2022-11-20T05:08:55;38.80;;;19.70;;
51664;SDS011;37751;52.408;12.536;2022-11-20T05:11:22;36.53;;;19.97;;
51664;SDS011;37751;52.408;12.536;2022-11-20T05:13:49;40.30;;;20.70;;
51664;SDS011;37751;52.408;12.536;2022-11-20T05:16:18;38.20;;;20.00;;
51664;SDS011;37751;52.408;12.536;2022-11-20T05:18:48;36.40;;;18.97;;
51664;SDS011;37751;52.408;12.536;2022-11-20T05:21:15;38.03;;;18.80;;
51664;SDS011;37751;52.408;12.536;2022-11-20T05:23:45;37.50;;;18.37;;
51664;SDS011;37751;52.408;12.536;2022-11-20T05:26:16;29.80;;;17.33;;
51664;SDS011;37751;52.408;12.536;2022-11-20T05:28:47;37.03;;;18.17;;
51664;SDS011;37751;52.408;12.536;2022-11-20T05:31:20;34.93;;;17.87;;
51664;SDS011;37751;52.408;12.536;2022-11-20T05:33:54;32.77;;;18.77;;
51664;SDS011;37751;52.408;12.536;2022-11-20T05:36:23;33.77;;;18.03;;
51664;SDS011;37751;52.408;12.536;2022-11-20T05:38:50;34.03;;;18.90;;
51664;SDS011;37751;52.408;12.536;2022-11-20T05:41:27;35.73;;;17.70;;
51664;SDS011;37751;52.408;12.536;2022-11-20T05:43:57;33.93;;;18.70;;
51664;SDS011;37751;52.408;12.536;2022-11-20T05:46:24;33.83;;;18.30;;
51664;SDS011;37751;52.408;12.536;2022-11-20T05:48:54;34.67;;;18.37;;
51664;SDS011;37751;52.408;12.536;2022-11-20T05:51:25;33.40;;;17.30;;
51664;SDS011;37751;52.408;12.536;2022-11-20T05:53:53;32.83;;;17.90;;
51664;SDS011;37751;52.408;12.536;2022-11-20T05:56:32;34.47;;;18.47;;
51664;SDS011;37751;52.408;12.536;2022-11-20T05:59:34;32.47;;;17.70;;
51664;SDS011;37751;52.408;12.536;2022-11-20T06:02:06;38.13;;;17.73;;
51664;SDS011;37751;52.408;12.536;2022-11-20T06:04:38;34.10;;;18.33;;
51664;SDS011;37751;52.408;12.536;2022-11-20T06:07:24;32.27;;;18.20;;
51664;SDS011;37751;52.408;12.536;2022-11-20T06:09:53;31.77;;;17.87;;
51664;SDS011;37751;52.408;12.536;2022-11-20T06:12:22;34.53;;;18.50;;
51664;SDS011;37751;52.408;12.536;2022-11-20T06:14:49;34.50;;;17.63;;
51664;SDS011;37751;52.408;12.536;2022-11-20T06:17:16;34.13;;;18.03;;
51664;SDS011;37751;52.408;12.536;2022-11-20T06:19:59;36.80;;;18.33;;
51664;SDS011;37751;52.408;12.536;2022-11-20T06:22:26;29.20;;;16.40;;
51664;SDS011;37751;52.408;12.536;2022-11-20T06:24:52;34.63;;;18.47;;
51664;SDS011;37751;52.408;12.536;2022-11-20T06:27:19;33.67;;;18.20;;
51664;SDS011;37751;52.408;12.536;2022-11-20T06:29:46;32.63;;;17.33;;
51664;SDS011;37751;52.408;12.536;2022-11-20T06:32:17;30.57;;;17.30;;
51664;SDS011;37751;52.408;12.536;2022-11-20T06:34:44;32.37;;;17.67;;
51664;SDS011;37751;52.408;12.536;2022-11-20T06:37:11;33.33;;;17.23;;
51664;SDS011;37751;52.408;12.536;2022-11-20T06:39:37;31.30;;;17.07;;
51664;SDS011;37751;52.408;12.536;2022-11-20T06:42:16;33.23;;;18.20;;
51664;SDS011;37751;52.408;12.536;2022-11-20T06:44:42;32.63;;;17.13;;
51664;SDS011;37751;52.408;12.536;2022-11-20T06:47:09;31.97;;;17.70;;
51664;SDS011;37751;52.408;12.536;2022-11-20T06:49:36;36.00;;;17.17;;
51664;SDS011;37751;52.408;12.536;2022-11-20T06:52:04;31.40;;;17.37;;
51664;SDS011;37751;52.408;12.536;2022-11-20T06:54:31;28.63;;;15.90;;
51664;SDS011;37751;52.408;12.536;2022-11-20T06:56:58;36.87;;;18.17;;
51664;SDS011;37751;52.408;12.536;2022-11-20T06:59:24;38.00;;;19.27;;
51664;SDS011;37751;52.408;12.536;2022-11-20T07:02:03;35.63;;;19.53;;
51664;SDS011;37751;52.408;12.536;2022-11-20T07:04:30;34.97;;;19.47;;
51664;SDS011;37751;52.408;12.536;2022-11-20T07:07:02;31.87;;;17.93;;
51664;SDS011;37751;52.408;12.536;2022-11-20T07:09:41;34.80;;;18.13;;
51664;SDS011;37751;52.408;12.536;2022-11-20T07:12:17;36.70;;;19.20;;
51664;SDS011;37751;52.408;12.536;2022-11-20T07:15:30;37.13;;;18.63;;
51664;SDS011;37751;52.408;12.536;2022-11-20T07:17:52;35.40;;;16.00;;
51664;SDS011;37751;52.408;12.536;2022-11-20T07:20:33;30.63;;;16.77;;
51664;SDS011;37751;52.408;12.536;2022-11-20T07:23:47;29.50;;;15.87;;
51664;SDS011;37751;52.408;12.536;2022-11-20T07:27:02;28.63;;;16.10;;
51664;SDS011;37751;52.408;12.536;2022-11-20T07:29:35;29.87;;;16.20;;
51664;SDS011;37751;52.408;12.536;2022-11-20T07:32:05;29.63;;;16.47;;
51664;SDS011;37751;52.408;12.536;2022-11-20T07:34:42;27.73;;;15.53;;
51664;SDS011;37751;52.408;12.536;2022-11-20T07:37:23;37.57;;;17.13;;
51664;SDS011;37751;52.408;12.536;2022-11-20T07:39:50;28.37;;;15.60;;
51664;SDS011;37751;52.408;12.536;2022-11-20T07:42:26;28.50;;;17.10;;
51664;SDS011;37751;52.408;12.536;2022-11-20T07:45:16;25.83;;;16.20;;
51664;SDS011;37751;52.408;12.536;2022-11-20T07:47:55;31.67;;;16.90;;
51664;SDS011;37751;52.408;12.536;2022-11-20T07:50:22;31.27;;;17.37;;
51664;SDS011;37751;52.408;12.536;2022-11-20T07:56:54;36.60;;;17.50;;
51664;SDS011;37751;52.408;12.536;2022-11-20T07:59:40;28.57;;;17.00;;
51664;SDS011;37751;52.408;12.536;2022-11-20T08:02:13;29.93;;;16.03;;
51664;SDS011;37751;52.408;12.536;2022-11-20T08:05:11;30.40;;;16.67;;
51664;SDS011;37751;52.408;12.536;2022-11-20T08:08:03;27.17;;;16.10;;
51664;SDS011;37751;52.408;12.536;2022-11-20T08:11:12;28.20;;;16.70;;
51664;SDS011;37751;52.408;12.536;2022-11-20T08:14:19;41.70;;;24.77;;
51664;SDS011;37751;52.408;12.536;2022-11-20T08:21:02;31.37;;;17.93;;
51664;SDS011;37751;52.408;12.536;2022-11-20T08:27:23;29.23;;;16.37;;
51664;SDS011;37751;52.408;12.536;2022-11-20T08:31:00;31.80;;;16.80;;
51664;SDS011;37751;52.408;12.536;2022-11-20T08:34:07;29.07;;;16.87;;
51664;SDS011;37751;52.408;12.536;2022-11-20T08:55:24;24.10;;;14.63;;
51664;SDS011;37751;52.408;12.536;2022-11-20T08:59:07;24.23;;;15.30;;
51664;SDS011;37751;52.408;12.536;2022-11-20T09:02:12;28.83;;;15.83;;
51664;SDS011;37751;52.408;12.536;2022-11-20T09:08:54;28.70;;;16.13;;
51664;SDS011;37751;52.408;12.536;2022-11-20T09:12:30;27.97;;;16.60;;
51664;SDS011;37751;52.408;12.536;2022-11-20T09:27:59;30.87;;;16.83;;
51664;SDS011;37751;52.408;12.536;2022-11-20T09:31:30;27.90;;;16.67;;
51664;SDS011;37751;52.408;12.536;2022-11-20T09:37:29;33.83;;;16.33;;
51664;SDS011;37751;52.408;12.536;2022-11-20T09:57:19;30.43;;;18.57;;
51664;SDS011;37751;52.408;12.536;2022-11-20T10:00:25;30.13;;;17.63;;
51664;SDS011;37751;52.408;12.536;2022-11-20T10:10:33;30.80;;;16.83;;
51664;SDS011;37751;52.408;12.536;2022-11-20T10:26:03;22.60;;;14.43;;
51664;SDS011;37751;52.408;12.536;2022-11-20T10:29:17;25.03;;;15.73;;
51664;SDS011;37751;52.408;12.536;2022-11-20T10:32:00;25.10;;;14.90;;
51664;SDS011;37751;52.408;12.536;2022-11-20T10:37:34;29.87;;;15.97;;
51664;SDS011;37751;52.408;12.536;2022-11-20T10:43:50;25.27;;;15.20;;
51664;SDS011;37751;52.408;12.536;2022-11-20T10:46:44;29.03;;;15.37;;
51664;SDS011;37751;52.408;12.536;2022-11-20T10:49:15;28.80;;;15.93;;
51664;SDS011;37751;52.408;12.536;2022-11-20T10:54:58;27.20;;;16.00;;
51664;SDS011;37751;52.408;12.536;2022-11-20T11:01:16;28.00;;;17.40;;
51664;SDS011;37751;52.408;12.536;2022-11-20T11:03:50;24.73;;;14.80;;
51664;SDS011;37751;52.408;12.536;2022-11-20T11:06:35;26.60;;;16.23;;
51664;SDS011;37751;52.408;12.536;2022-11-20T11:09:14;28.27;;;14.93;;
51664;SDS011;37751;52.408;12.536;2022-11-20T11:11:47;23.23;;;14.17;;
51664;SDS011;37751;52.408;12.536;2022-11-20T11:14:15;26.50;;;14.73;;
51664;SDS011;37751;52.408;12.536;2022-11-20T11:16:55;37.77;;;21.23;;
51664;SDS011;37751;52.408;12.536;2022-11-20T11:19:24;21.60;;;15.30;;
51664;SDS011;37751;52.408;12.536;2022-11-20T11:21:55;25.57;;;15.00;;
51664;SDS011;37751;52.408;12.536;2022-11-20T11:24:54;25.37;;;14.93;;
51664;SDS011;37751;52.408;12.536;2022-11-20T11:27:21;26.77;;;15.47;;
51664;SDS011;37751;52.408;12.536;2022-11-20T11:29:48;30.37;;;19.37;;
51664;SDS011;37751;52.408;12.536;2022-11-20T11:32:17;33.67;;;18.20;;
51664;SDS011;37751;52.408;12.536;2022-11-20T11:35:01;40.27;;;24.80;;
51664;SDS011;37751;52.408;12.536;2022-11-20T11:37:34;27.13;;;15.87;;
51664;SDS011;37751;52.408;12.536;2022-11-20T11:40:04;31.37;;;16.83;;
51664;SDS011;37751;52.408;12.536;2022-11-20T11:42:54;24.27;;;15.23;;
51664;SDS011;37751;52.408;12.536;2022-11-20T11:45:27;33.67;;;19.13;;
51664;SDS011;37751;52.408;12.536;2022-11-20T11:47:56;32.07;;;19.23;;
51664;SDS011;37751;52.408;12.536;2022-11-20T11:50:27;27.23;;;17.23;;
51664;SDS011;37751;52.408;12.536;2022-11-20T11:55:57;22.63;;;12.90;;
51664;SDS011;37751;52.408;12.536;2022-11-20T11:58:43;21.33;;;12.77;;
51664;SDS011;37751;52.408;12.536;2022-11-20T12:07:03;21.67;;;12.67;;
51664;SDS011;37751;52.408;12.536;2022-11-20T12:10:08;24.30;;;14.00;;
51664;SDS011;37751;52.408;12.536;2022-11-20T12:12:54;26.13;;;15.07;;
51664;SDS011;37751;52.408;12.536;2022-11-20T12:15:29;23.43;;;13.57;;
51664;SDS011;37751;52.408;12.536;2022-11-20T12:17:59;22.20;;;13.47;;
51664;SDS011;37751;52.408;12.536;2022-11-20T12:20:28;20.30;;;13.07;;
51664;SDS011;37751;52.408;12.536;2022-11-20T12:23:18;30.03;;;13.77;;
51664;SDS011;37751;52.408;12.536;2022-11-20T12:26:05;25.67;;;14.47;;
51664;SDS011;37751;52.408;12.536;2022-11-20T12:28:51;29.13;;;17.30;;
51664;SDS011;37751;52.408;12.536;2022-11-20T13:00:24;21.70;;;13.13;;
51664;SDS011;37751;52.408;12.536;2022-11-20T13:05:58;19.10;;;13.17;;
51664;SDS011;37751;52.408;12.536;2022-11-20T13:08:37;20.03;;;12.33;;
51664;SDS011;37751;52.408;12.536;2022-11-20T13:16:38;21.80;;;12.40;;
51664;SDS011;37751;52.408;12.536;2022-11-20T13:19:20;20.57;;;12.07;;
51664;SDS011;37751;52.408;12.536;2022-11-20T13:21:49;19.03;;;12.13;;
51664;SDS011;37751;52.408;12.536;2022-11-20T13:27:03;17.63;;;11.53;;
51664;SDS011;37751;52.408;12.536;2022-11-20T13:29:32;19.40;;;11.67;;
51664;SDS011;37751;52.408;12.536;2022-11-20T13:34:57;16.57;;;9.17;;
51664;SDS011;37751;52.408;12.536;2022-11-20T13:42:39;18.77;;;10.37;;
51664;SDS011;37751;52.408;12.536;2022-11-20T13:45:23;17.07;;;9.50;;
51664;SDS011;37751;52.408;12.536;2022-11-20T13:47:56;15.20;;;9.63;;
51664;SDS011;37751;52.408;12.536;2022-11-20T13:53:09;20.67;;;11.00;;
51664;SDS011;37751;52.408;12.536;2022-11-20T13:59:05;19.17;;;10.90;;
51664;SDS011;37751;52.408;12.536;2022-11-20T14:01:55;20.17;;;10.50;;
51664;SDS011;37751;52.408;12.536;2022-11-20T14:04:26;17.73;;;11.57;;
51664;SDS011;37751;52.408;12.536;2022-11-20T14:06:59;20.67;;;10.87;;
51664;SDS011;37751;52.408;12.536;2022-11-20T14:09:30;21.57;;;12.57;;
51664;SDS011;37751;52.408;12.536;2022-11-20T14:11:59;19.47;;;11.73;;
51664;SDS011;37751;52.408;12.536;2022-11-20T14:14:28;23.33;;;12.53;;
51664;SDS011;37751;52.408;12.536;2022-11-20T14:17:15;21.17;;;12.90;;
51664;SDS011;37751;52.408;12.536;2022-11-20T14:19:49;22.70;;;12.10;;
51664;SDS011;37751;52.408;12.536;2022-11-20T14:27:38;23.97;;;12.47;;
51664;SDS011;37751;52.408;12.536;2022-11-20T14:30:25;26.67;;;14.23;;
51664;SDS011;37751;52.408;12.536;2022-11-20T14:33:11;27.47;;;16.80;;
51664;SDS011;37751;52.408;12.536;2022-11-20T14:35:42;25.33;;;14.70;;
51664;SDS011;37751;52.408;12.536;2022-11-20T14:38:26;28.03;;;17.63;;
51664;SDS011;37751;52.408;12.536;2022-11-20T14:41:18;24.97;;;17.17;;
51664;SDS011;37751;52.408;12.536;2022-11-20T14:44:04;25.97;;;15.67;;
51664;SDS011;37751;52.408;12.536;2022-11-20T14:46:35;25.57;;;14.77;;
51664;SDS011;37751;52.408;12.536;2022-11-20T14:49:02;25.90;;;14.97;;
51664;SDS011;37751;52.408;12.536;2022-11-20T14:51:31;22.13;;;13.97;;
51664;SDS011;37751;52.408;12.536;2022-11-20T14:54:18;21.27;;;14.30;;
51664;SDS011;37751;52.408;12.536;2022-11-20T14:56:55;23.07;;;11.93;;
51664;SDS011;37751;52.408;12.536;2022-11-20T14:59:31;22.83;;;14.13;;
51664;SDS011;37751;52.408;12.536;2022-11-20T15:02:04;24.37;;;13.40;;
51664;SDS011;37751;52.408;12.536;2022-11-20T15:04:56;22.33;;;13.37;;
51664;SDS011;37751;52.408;12.536;2022-11-20T15:07:26;29.30;;;16.07;;
51664;SDS011;37751;52.408;12.536;2022-11-20T15:12:38;22.40;;;13.20;;
51664;SDS011;37751;52.408;12.536;2022-11-20T15:15:16;23.20;;;13.90;;
51664;SDS011;37751;52.408;12.536;2022-11-20T15:17:53;25.57;;;12.80;;
51664;SDS011;37751;52.408;12.536;2022-11-20T15:20:20;26.00;;;13.93;;
51664;SDS011;37751;52.408;12.536;2022-11-20T15:22:50;23.97;;;13.43;;
51664;SDS011;37751;52.408;12.536;2022-11-20T15:25:17;22.50;;;12.10;;
51664;SDS011;37751;52.408;12.536;2022-11-20T15:27:44;22.63;;;13.47;;
51664;SDS011;37751;52.408;12.536;2022-11-20T15:30:16;22.30;;;12.97;;
51664;SDS011;37751;52.408;12.536;2022-11-20T15:32:45;20.07;;;12.93;;
51664;SDS011;37751;52.408;12.536;2022-11-20T15:35:13;21.07;;;12.97;;
51664;SDS011;37751;52.408;12.536;2022-11-20T15:37:41;21.83;;;13.27;;
51664;SDS011;37751;52.408;12.536;2022-11-20T15:40:08;26.70;;;13.87;;
51664;SDS011;37751;52.408;12.536;2022-11-20T15:42:36;24.73;;;13.07;;
51664;SDS011;37751;52.408;12.536;2022-11-20T15:45:03;23.07;;;13.03;;
51664;SDS011;37751;52.408;12.536;2022-11-20T15:47:31;23.83;;;13.33;;
51664;SDS011;37751;52.408;12.536;2022-11-20T15:50:00;20.50;;;12.37;;
51664;SDS011;37751;52.408;12.536;2022-11-20T15:52:27;23.27;;;13.50;;
51664;SDS011;37751;52.408;12.536;2022-11-20T15:55:10;22.30;;;12.47;;
51664;SDS011;37751;52.408;12.536;2022-11-20T15:57:37;19.40;;;11.60;;
51664;SDS011;37751;52.408;12.536;2022-11-20T16:00:04;21.20;;;12.27;;
51664;SDS011;37751;52.408;12.536;2022-11-20T16:02:35;25.67;;;12.93;;
51664;SDS011;37751;52.408;12.536;2022-11-20T16:05:02;18.10;;;12.07;;
51664;SDS011;37751;52.408;12.536;2022-11-20T16:07:30;19.90;;;12.30;;
51664;SDS011;37751;52.408;12.536;2022-11-20T16:09:56;19.03;;;12.00;;
51664;SDS011;37751;52.408;12.536;2022-11-20T16:12:23;19.40;;;11.60;;
51664;SDS011;37751;52.408;12.536;2022-11-20T16:15:10;22.57;;;12.33;;
51664;SDS011;37751;52.408;12.536;2022-11-20T16:17:56;21.43;;;12.37;;
51664;SDS011;37751;52.408;12.536;2022-11-20T16:20:22;21.90;;;11.70;;
51664;SDS011;37751;52.408;12.536;2022-11-20T16:22:49;21.27;;;12.50;;
51664;SDS011;37751;52.408;12.536;2022-11-20T16:25:16;20.73;;;12.33;;
51664;SDS011;37751;52.408;12.536;2022-11-20T16:27:43;20.27;;;11.47;;
51664;SDS011;37751;52.408;12.536;2022-11-20T16:30:10;24.03;;;12.30;;
51664;SDS011;37751;52.408;12.536;2022-11-20T16:32:36;24.53;;;13.23;;
51664;SDS011;37751;52.408;12.536;2022-11-20T16:35:04;36.00;;;17.87;;
51664;SDS011;37751;52.408;12.536;2022-11-20T16:37:33;66.87;;;30.03;;
51664;SDS011;37751;52.408;12.536;2022-11-20T16:40:00;26.77;;;15.97;;
51664;SDS011;37751;52.408;12.536;2022-11-20T16:42:27;24.37;;;12.70;;
51664;SDS011;37751;52.408;12.536;2022-11-20T16:44:53;20.90;;;13.43;;
51664;SDS011;37751;52.408;12.536;2022-11-20T16:47:20;22.93;;;13.93;;
51664;SDS011;37751;52.408;12.536;2022-11-20T16:49:47;24.60;;;14.17;;
51664;SDS011;37751;52.408;12.536;2022-11-20T16:52:14;24.73;;;13.50;;
51664;SDS011;37751;52.408;12.536;2022-11-20T16:54:40;22.90;;;13.90;;
51664;SDS011;37751;52.408;12.536;2022-11-20T16:57:07;22.13;;;13.17;;
51664;SDS011;37751;52.408;12.536;2022-11-20T16:59:34;22.23;;;13.27;;
51664;SDS011;37751;52.408;12.536;2022-11-20T17:02:00;23.67;;;13.70;;
51664;SDS011;37751;52.408;12.536;2022-11-20T17:04:27;27.07;;;12.73;;
51664;SDS011;37751;52.408;12.536;2022-11-20T17:06:54;23.13;;;13.67;;
51664;SDS011;37751;52.408;12.536;2022-11-20T17:09:23;25.17;;;15.43;;
51664;SDS011;37751;52.408;12.536;2022-11-20T17:11:49;28.37;;;16.47;;
51664;SDS011;37751;52.408;12.536;2022-11-20T17:14:16;30.93;;;18.63;;
51664;SDS011;37751;52.408;12.536;2022-11-20T17:16:43;27.87;;;16.20;;
51664;SDS011;37751;52.408;12.536;2022-11-20T17:19:10;28.80;;;17.40;;
51664;SDS011;37751;52.408;12.536;2022-11-20T17:21:37;24.30;;;15.63;;
51664;SDS011;37751;52.408;12.536;2022-11-20T17:24:09;27.00;;;16.13;;
51664;SDS011;37751;52.408;12.536;2022-11-20T17:26:39;24.20;;;15.03;;
51664;SDS011;37751;52.408;12.536;2022-11-20T17:29:11;20.17;;;12.80;;
51664;SDS011;37751;52.408;12.536;2022-11-20T17:31:44;17.90;;;12.10;;
51664;SDS011;37751;52.408;12.536;2022-11-20T17:34:12;24.17;;;12.90;;
51664;SDS011;37751;52.408;12.536;2022-11-20T17:36:40;23.27;;;12.03;;
51664;SDS011;37751;52.408;12.536;2022-11-20T17:39:12;23.90;;;12.93;;
51664;SDS011;37751;52.408;12.536;2022-11-20T17:41:40;19.70;;;12.40;;
51664;SDS011;37751;52.408;12.536;2022-11-20T17:44:08;20.37;;;12.07;;
51664;SDS011;37751;52.408;12.536;2022-11-20T17:46:36;19.40;;;12.10;;
51664;SDS011;37751;52.408;12.536;2022-11-20T17:49:03;17.83;;;11.33;;
51664;SDS011;37751;52.408;12.536;2022-11-20T17:51:33;21.07;;;11.47;;
51664;SDS011;37751;52.408;12.536;2022-11-20T17:54:02;19.30;;;12.10;;
51664;SDS011;37751;52.408;12.536;2022-11-20T17:56:31;17.40;;;11.90;;
51664;SDS011;37751;52.408;12.536;2022-11-20T17:59:18;19.13;;;11.53;;